Potou, China
Current Conditions -  °F | °C
As of 11:00 PM on Thursday 18 Dec 2014 (Local Time) from ZBTJ Reporting Station
Haze Haze  
Wind Chill: 30°   Ceiling: Unl
Heat Index: 30°   Visibility: 1.1mi
Dew Point: 21°   Wind: 2mph
Humidity: 69%   Direction: 310°NW
Pressure: 30.24"   Gusts: NA
Location:  38.08°N, 116.55°E
Report Text: ZBTJ 181500Z 31001MPS 1800 HZ NSC M01/M06 Q1024 NOSIG
Loading
Personal Weather Stations






























Interactive Weather Map New forecast layout! Learn more

10-Day Weather Forecast

Advertisements
Track Severe Weather on mobile